sensor_id;sensor_type;location;lat;lon;timestamp;P1;durP1;ratioP1;P2;durP2;ratioP2
14994;SDS011;7593;49.006;8.372;2023-02-24T00:01:00;28.65;;;22.30;;
14994;SDS011;7593;49.006;8.372;2023-02-24T00:03:33;25.35;;;20.95;;
14994;SDS011;7593;49.006;8.372;2023-02-24T00:06:02;27.25;;;21.20;;
14994;SDS011;7593;49.006;8.372;2023-02-24T00:08:35;30.83;;;22.60;;
14994;SDS011;7593;49.006;8.372;2023-02-24T00:11:06;28.48;;;21.85;;
14994;SDS011;7593;49.006;8.372;2023-02-24T00:13:34;27.70;;;21.98;;
14994;SDS011;7593;49.006;8.372;2023-02-24T00:16:01;28.00;;;22.15;;
14994;SDS011;7593;49.006;8.372;2023-02-24T00:18:30;29.65;;;22.73;;
14994;SDS011;7593;49.006;8.372;2023-02-24T00:21:03;28.58;;;22.00;;
14994;SDS011;7593;49.006;8.372;2023-02-24T00:23:32;31.00;;;23.02;;
14994;SDS011;7593;49.006;8.372;2023-02-24T00:26:01;27.88;;;21.73;;
14994;SDS011;7593;49.006;8.372;2023-02-24T00:28:27;29.92;;;21.90;;
14994;SDS011;7593;49.006;8.372;2023-02-24T00:30:55;29.00;;;23.15;;
14994;SDS011;7593;49.006;8.372;2023-02-24T00:33:22;30.95;;;22.95;;
14994;SDS011;7593;49.006;8.372;2023-02-24T00:35:49;31.33;;;23.10;;
14994;SDS011;7593;49.006;8.372;2023-02-24T00:38:18;29.92;;;23.17;;
14994;SDS011;7593;49.006;8.372;2023-02-24T00:40:45;32.33;;;24.42;;
14994;SDS011;7593;49.006;8.372;2023-02-24T00:43:12;31.67;;;22.98;;
14994;SDS011;7593;49.006;8.372;2023-02-24T00:45:38;34.97;;;24.00;;
14994;SDS011;7593;49.006;8.372;2023-02-24T00:48:05;36.22;;;24.95;;
14994;SDS011;7593;49.006;8.372;2023-02-24T00:50:34;35.50;;;24.85;;
14994;SDS011;7593;49.006;8.372;2023-02-24T00:53:03;37.25;;;25.80;;
14994;SDS011;7593;49.006;8.372;2023-02-24T00:55:32;37.15;;;24.90;;
14994;SDS011;7593;49.006;8.372;2023-02-24T00:58:01;40.30;;;26.33;;
14994;SDS011;7593;49.006;8.372;2023-02-24T01:00:29;40.38;;;27.60;;
14994;SDS011;7593;49.006;8.372;2023-02-24T01:03:00;38.58;;;26.00;;
14994;SDS011;7593;49.006;8.372;2023-02-24T01:05:27;41.58;;;26.75;;
14994;SDS011;7593;49.006;8.372;2023-02-24T01:07:55;39.83;;;25.88;;
14994;SDS011;7593;49.006;8.372;2023-02-24T01:10:21;40.83;;;27.15;;
14994;SDS011;7593;49.006;8.372;2023-02-24T01:12:52;39.67;;;26.38;;
14994;SDS011;7593;49.006;8.372;2023-02-24T01:15:18;40.72;;;27.30;;
14994;SDS011;7593;49.006;8.372;2023-02-24T01:17:47;42.75;;;27.67;;
14994;SDS011;7593;49.006;8.372;2023-02-24T01:20:14;45.55;;;28.15;;
14994;SDS011;7593;49.006;8.372;2023-02-24T01:22:42;43.38;;;27.98;;
14994;SDS011;7593;49.006;8.372;2023-02-24T01:25:10;39.20;;;26.08;;
14994;SDS011;7593;49.006;8.372;2023-02-24T01:27:37;41.22;;;26.98;;
14994;SDS011;7593;49.006;8.372;2023-02-24T01:30:07;41.08;;;27.25;;
14994;SDS011;7593;49.006;8.372;2023-02-24T01:32:39;40.67;;;26.60;;
14994;SDS011;7593;49.006;8.372;2023-02-24T01:35:07;40.15;;;26.48;;
14994;SDS011;7593;49.006;8.372;2023-02-24T01:37:35;42.38;;;27.75;;
14994;SDS011;7593;49.006;8.372;2023-02-24T01:40:03;41.58;;;27.55;;
14994;SDS011;7593;49.006;8.372;2023-02-24T01:42:41;44.03;;;28.33;;
14994;SDS011;7593;49.006;8.372;2023-02-24T01:45:14;41.88;;;27.42;;
14994;SDS011;7593;49.006;8.372;2023-02-24T01:47:43;40.75;;;27.35;;
14994;SDS011;7593;49.006;8.372;2023-02-24T01:50:12;42.25;;;27.95;;
14994;SDS011;7593;49.006;8.372;2023-02-24T01:52:41;42.53;;;28.15;;
14994;SDS011;7593;49.006;8.372;2023-02-24T01:55:13;43.40;;;28.70;;
14994;SDS011;7593;49.006;8.372;2023-02-24T01:57:44;45.17;;;28.15;;
14994;SDS011;7593;49.006;8.372;2023-02-24T02:00:14;43.75;;;29.33;;
14994;SDS011;7593;49.006;8.372;2023-02-24T02:03:03;48.40;;;28.70;;
14994;SDS011;7593;49.006;8.372;2023-02-24T02:05:38;45.95;;;28.83;;
14994;SDS011;7593;49.006;8.372;2023-02-24T02:08:05;43.58;;;28.92;;
14994;SDS011;7593;49.006;8.372;2023-02-24T02:10:33;43.92;;;28.58;;
14994;SDS011;7593;49.006;8.372;2023-02-24T02:13:03;43.55;;;28.60;;
14994;SDS011;7593;49.006;8.372;2023-02-24T02:15:33;45.67;;;28.25;;
14994;SDS011;7593;49.006;8.372;2023-02-24T02:18:09;47.05;;;28.02;;
14994;SDS011;7593;49.006;8.372;2023-02-24T02:23:49;45.15;;;28.40;;
14994;SDS011;7593;49.006;8.372;2023-02-24T02:29:36;45.80;;;28.60;;
14994;SDS011;7593;49.006;8.372;2023-02-24T02:32:36;47.55;;;28.30;;
14994;SDS011;7593;49.006;8.372;2023-02-24T02:35:32;45.97;;;27.83;;
14994;SDS011;7593;49.006;8.372;2023-02-24T02:38:04;48.08;;;29.27;;
14994;SDS011;7593;49.006;8.372;2023-02-24T02:40:40;45.75;;;28.83;;
14994;SDS011;7593;49.006;8.372;2023-02-24T02:43:14;44.00;;;28.88;;
14994;SDS011;7593;49.006;8.372;2023-02-24T02:45:50;45.47;;;28.95;;
14994;SDS011;7593;49.006;8.372;2023-02-24T02:48:22;47.45;;;29.23;;
14994;SDS011;7593;49.006;8.372;2023-02-24T02:50:57;46.42;;;28.92;;
14994;SDS011;7593;49.006;8.372;2023-02-24T02:53:30;44.38;;;28.30;;
14994;SDS011;7593;49.006;8.372;2023-02-24T02:56:02;45.25;;;27.75;;
14994;SDS011;7593;49.006;8.372;2023-02-24T02:58:37;48.25;;;29.30;;
14994;SDS011;7593;49.006;8.372;2023-02-24T03:01:07;47.63;;;28.42;;
14994;SDS011;7593;49.006;8.372;2023-02-24T03:03:37;47.40;;;27.52;;
14994;SDS011;7593;49.006;8.372;2023-02-24T03:06:11;45.08;;;27.75;;
14994;SDS011;7593;49.006;8.372;2023-02-24T03:08:46;44.33;;;28.13;;
14994;SDS011;7593;49.006;8.372;2023-02-24T03:11:17;46.22;;;29.27;;
14994;SDS011;7593;49.006;8.372;2023-02-24T03:13:45;44.55;;;26.55;;
14994;SDS011;7593;49.006;8.372;2023-02-24T03:16:16;45.45;;;27.23;;
14994;SDS011;7593;49.006;8.372;2023-02-24T03:18:44;41.55;;;26.92;;
14994;SDS011;7593;49.006;8.372;2023-02-24T03:21:17;47.85;;;28.58;;
14994;SDS011;7593;49.006;8.372;2023-02-24T03:23:52;46.75;;;28.85;;
14994;SDS011;7593;49.006;8.372;2023-02-24T03:26:20;43.97;;;26.92;;
14994;SDS011;7593;49.006;8.372;2023-02-24T03:28:53;45.38;;;28.08;;
14994;SDS011;7593;49.006;8.372;2023-02-24T03:31:25;44.17;;;28.05;;
14994;SDS011;7593;49.006;8.372;2023-02-24T03:33:56;44.88;;;27.92;;
14994;SDS011;7593;49.006;8.372;2023-02-24T03:36:29;44.10;;;28.10;;
14994;SDS011;7593;49.006;8.372;2023-02-24T03:38:56;48.17;;;28.73;;
14994;SDS011;7593;49.006;8.372;2023-02-24T03:41:26;44.50;;;26.80;;
14994;SDS011;7593;49.006;8.372;2023-02-24T03:43:56;44.50;;;27.52;;
14994;SDS011;7593;49.006;8.372;2023-02-24T03:46:25;44.78;;;28.15;;
14994;SDS011;7593;49.006;8.372;2023-02-24T03:48:54;46.15;;;27.13;;
14994;SDS011;7593;49.006;8.372;2023-02-24T03:51:28;43.70;;;28.05;;
14994;SDS011;7593;49.006;8.372;2023-02-24T03:54:00;43.38;;;27.48;;
14994;SDS011;7593;49.006;8.372;2023-02-24T03:56:40;45.42;;;27.30;;
14994;SDS011;7593;49.006;8.372;2023-02-24T03:59:13;41.03;;;25.60;;
14994;SDS011;7593;49.006;8.372;2023-02-24T04:01:48;41.85;;;26.83;;
14994;SDS011;7593;49.006;8.372;2023-02-24T04:04:23;40.50;;;26.65;;
14994;SDS011;7593;49.006;8.372;2023-02-24T04:06:59;43.65;;;26.77;;
14994;SDS011;7593;49.006;8.372;2023-02-24T04:09:34;44.25;;;27.30;;
14994;SDS011;7593;49.006;8.372;2023-02-24T04:12:06;42.15;;;26.45;;
14994;SDS011;7593;49.006;8.372;2023-02-24T04:14:40;44.47;;;27.33;;
14994;SDS011;7593;49.006;8.372;2023-02-24T04:17:13;43.90;;;27.27;;
14994;SDS011;7593;49.006;8.372;2023-02-24T04:19:45;43.72;;;27.35;;
14994;SDS011;7593;49.006;8.372;2023-02-24T04:22:16;44.08;;;26.38;;
14994;SDS011;7593;49.006;8.372;2023-02-24T04:24:49;41.75;;;27.27;;
14994;SDS011;7593;49.006;8.372;2023-02-24T04:27:17;43.20;;;26.42;;
14994;SDS011;7593;49.006;8.372;2023-02-24T04:29:46;41.70;;;26.58;;
14994;SDS011;7593;49.006;8.372;2023-02-24T04:32:17;40.65;;;25.27;;
14994;SDS011;7593;49.006;8.372;2023-02-24T04:34:48;41.05;;;25.75;;
14994;SDS011;7593;49.006;8.372;2023-02-24T04:37:16;38.97;;;24.15;;
14994;SDS011;7593;49.006;8.372;2023-02-24T04:39:47;38.60;;;24.15;;
14994;SDS011;7593;49.006;8.372;2023-02-24T04:42:15;38.72;;;24.38;;
14994;SDS011;7593;49.006;8.372;2023-02-24T04:44:46;39.28;;;25.15;;
14994;SDS011;7593;49.006;8.372;2023-02-24T04:47:13;40.03;;;24.42;;
14994;SDS011;7593;49.006;8.372;2023-02-24T04:49:40;39.85;;;24.92;;
14994;SDS011;7593;49.006;8.372;2023-02-24T04:52:08;41.15;;;25.00;;
14994;SDS011;7593;49.006;8.372;2023-02-24T04:54:37;36.97;;;23.67;;
14994;SDS011;7593;49.006;8.372;2023-02-24T04:57:03;39.20;;;24.85;;
14994;SDS011;7593;49.006;8.372;2023-02-24T04:59:30;39.65;;;23.88;;
14994;SDS011;7593;49.006;8.372;2023-02-24T05:01:58;36.65;;;23.13;;
14994;SDS011;7593;49.006;8.372;2023-02-24T05:04:25;37.10;;;23.73;;
14994;SDS011;7593;49.006;8.372;2023-02-24T05:06:54;38.05;;;24.15;;
14994;SDS011;7593;49.006;8.372;2023-02-24T05:09:21;40.67;;;25.00;;
14994;SDS011;7593;49.006;8.372;2023-02-24T05:11:52;38.42;;;24.27;;
14994;SDS011;7593;49.006;8.372;2023-02-24T05:14:21;41.50;;;24.55;;
14994;SDS011;7593;49.006;8.372;2023-02-24T05:16:48;37.50;;;23.15;;
14994;SDS011;7593;49.006;8.372;2023-02-24T05:19:16;35.78;;;22.85;;
14994;SDS011;7593;49.006;8.372;2023-02-24T05:22:02;36.75;;;23.42;;
14994;SDS011;7593;49.006;8.372;2023-02-24T05:24:31;41.80;;;23.60;;
14994;SDS011;7593;49.006;8.372;2023-02-24T05:27:00;41.92;;;24.80;;
14994;SDS011;7593;49.006;8.372;2023-02-24T05:29:28;38.08;;;22.80;;
14994;SDS011;7593;49.006;8.372;2023-02-24T05:31:56;41.17;;;25.77;;
14994;SDS011;7593;49.006;8.372;2023-02-24T05:34:24;38.88;;;23.25;;
14994;SDS011;7593;49.006;8.372;2023-02-24T05:36:51;34.40;;;21.52;;
14994;SDS011;7593;49.006;8.372;2023-02-24T05:39:18;36.40;;;23.10;;
14994;SDS011;7593;49.006;8.372;2023-02-24T05:41:45;41.75;;;24.10;;
14994;SDS011;7593;49.006;8.372;2023-02-24T05:44:15;39.17;;;23.13;;
14994;SDS011;7593;49.006;8.372;2023-02-24T05:46:46;36.72;;;22.10;;
14994;SDS011;7593;49.006;8.372;2023-02-24T05:49:14;38.63;;;23.02;;
14994;SDS011;7593;49.006;8.372;2023-02-24T05:51:45;36.75;;;21.95;;
14994;SDS011;7593;49.006;8.372;2023-02-24T05:54:18;35.17;;;21.73;;
14994;SDS011;7593;49.006;8.372;2023-02-24T05:56:47;35.53;;;21.70;;
14994;SDS011;7593;49.006;8.372;2023-02-24T05:59:15;38.45;;;23.23;;
14994;SDS011;7593;49.006;8.372;2023-02-24T06:01:45;38.08;;;22.38;;
14994;SDS011;7593;49.006;8.372;2023-02-24T06:04:13;37.13;;;21.75;;
14994;SDS011;7593;49.006;8.372;2023-02-24T06:06:52;35.95;;;21.45;;
14994;SDS011;7593;49.006;8.372;2023-02-24T06:09:19;35.10;;;21.65;;
14994;SDS011;7593;49.006;8.372;2023-02-24T06:11:47;34.88;;;22.15;;
14994;SDS011;7593;49.006;8.372;2023-02-24T06:14:16;33.95;;;21.13;;
14994;SDS011;7593;49.006;8.372;2023-02-24T06:16:42;37.88;;;22.63;;
14994;SDS011;7593;49.006;8.372;2023-02-24T06:19:10;37.25;;;22.75;;
14994;SDS011;7593;49.006;8.372;2023-02-24T06:21:38;37.95;;;22.05;;
14994;SDS011;7593;49.006;8.372;2023-02-24T06:24:08;37.35;;;22.10;;
14994;SDS011;7593;49.006;8.372;2023-02-24T06:26:38;35.55;;;21.23;;
14994;SDS011;7593;49.006;8.372;2023-02-24T06:29:09;39.50;;;22.02;;
14994;SDS011;7593;49.006;8.372;2023-02-24T06:31:38;38.97;;;21.45;;
14994;SDS011;7593;49.006;8.372;2023-02-24T06:34:05;40.97;;;22.27;;
14994;SDS011;7593;49.006;8.372;2023-02-24T06:36:34;36.70;;;21.58;;
14994;SDS011;7593;49.006;8.372;2023-02-24T06:39:01;43.33;;;22.13;;
14994;SDS011;7593;49.006;8.372;2023-02-24T06:41:32;52.17;;;22.65;;
14994;SDS011;7593;49.006;8.372;2023-02-24T06:43:59;42.30;;;22.77;;
14994;SDS011;7593;49.006;8.372;2023-02-24T06:46:26;39.90;;;22.38;;
14994;SDS011;7593;49.006;8.372;2023-02-24T06:48:55;37.72;;;22.35;;
14994;SDS011;7593;49.006;8.372;2023-02-24T06:51:22;45.78;;;22.33;;
14994;SDS011;7593;49.006;8.372;2023-02-24T06:53:54;39.17;;;21.98;;
14994;SDS011;7593;49.006;8.372;2023-02-24T06:56:21;43.47;;;21.60;;
14994;SDS011;7593;49.006;8.372;2023-02-24T06:58:49;38.75;;;21.63;;
14994;SDS011;7593;49.006;8.372;2023-02-24T07:01:18;37.20;;;21.52;;
14994;SDS011;7593;49.006;8.372;2023-02-24T07:03:46;37.45;;;19.98;;
14994;SDS011;7593;49.006;8.372;2023-02-24T07:06:29;39.45;;;21.17;;
14994;SDS011;7593;49.006;8.372;2023-02-24T07:08:58;40.00;;;21.08;;
14994;SDS011;7593;49.006;8.372;2023-02-24T07:11:28;38.33;;;20.70;;
14994;SDS011;7593;49.006;8.372;2023-02-24T07:13:56;41.42;;;22.73;;
14994;SDS011;7593;49.006;8.372;2023-02-24T07:16:23;35.92;;;20.42;;
14994;SDS011;7593;49.006;8.372;2023-02-24T07:18:52;36.67;;;21.50;;
14994;SDS011;7593;49.006;8.372;2023-02-24T07:21:21;34.22;;;20.92;;
14994;SDS011;7593;49.006;8.372;2023-02-24T07:23:51;37.55;;;20.02;;
14994;SDS011;7593;49.006;8.372;2023-02-24T07:26:21;33.47;;;20.00;;
14994;SDS011;7593;49.006;8.372;2023-02-24T07:28:50;37.92;;;21.55;;
14994;SDS011;7593;49.006;8.372;2023-02-24T07:31:19;34.85;;;18.85;;
14994;SDS011;7593;49.006;8.372;2023-02-24T07:33:48;32.50;;;20.27;;
14994;SDS011;7593;49.006;8.372;2023-02-24T07:36:19;32.08;;;19.15;;
14994;SDS011;7593;49.006;8.372;2023-02-24T07:38:48;30.40;;;18.70;;
14994;SDS011;7593;49.006;8.372;2023-02-24T07:41:20;32.20;;;19.27;;
14994;SDS011;7593;49.006;8.372;2023-02-24T07:43:48;33.28;;;19.33;;
14994;SDS011;7593;49.006;8.372;2023-02-24T07:46:16;31.48;;;19.45;;
14994;SDS011;7593;49.006;8.372;2023-02-24T07:48:44;34.33;;;20.00;;
14994;SDS011;7593;49.006;8.372;2023-02-24T07:51:11;33.97;;;21.25;;
14994;SDS011;7593;49.006;8.372;2023-02-24T07:53:40;35.15;;;21.00;;
14994;SDS011;7593;49.006;8.372;2023-02-24T07:56:09;33.78;;;20.88;;
14994;SDS011;7593;49.006;8.372;2023-02-24T07:58:38;32.90;;;19.67;;
14994;SDS011;7593;49.006;8.372;2023-02-24T08:01:06;34.28;;;20.60;;
14994;SDS011;7593;49.006;8.372;2023-02-24T08:03:41;33.65;;;19.42;;
14994;SDS011;7593;49.006;8.372;2023-02-24T08:06:08;34.67;;;20.45;;
14994;SDS011;7593;49.006;8.372;2023-02-24T08:08:42;32.58;;;19.67;;
14994;SDS011;7593;49.006;8.372;2023-02-24T08:11:24;29.92;;;18.58;;
14994;SDS011;7593;49.006;8.372;2023-02-24T08:13:59;37.03;;;20.25;;
14994;SDS011;7593;49.006;8.372;2023-02-24T08:16:34;35.20;;;20.10;;
14994;SDS011;7593;49.006;8.372;2023-02-24T08:19:04;30.70;;;19.30;;
14994;SDS011;7593;49.006;8.372;2023-02-24T08:21:36;34.50;;;20.67;;
14994;SDS011;7593;49.006;8.372;2023-02-24T08:24:06;35.30;;;20.75;;
14994;SDS011;7593;49.006;8.372;2023-02-24T08:26:42;33.25;;;19.98;;
14994;SDS011;7593;49.006;8.372;2023-02-24T08:29:12;32.33;;;19.10;;
14994;SDS011;7593;49.006;8.372;2023-02-24T08:31:44;32.10;;;19.10;;
14994;SDS011;7593;49.006;8.372;2023-02-24T08:34:11;32.63;;;20.13;;
14994;SDS011;7593;49.006;8.372;2023-02-24T08:36:40;30.63;;;19.02;;
14994;SDS011;7593;49.006;8.372;2023-02-24T08:39:12;32.30;;;19.77;;
14994;SDS011;7593;49.006;8.372;2023-02-24T08:41:40;33.20;;;20.15;;
14994;SDS011;7593;49.006;8.372;2023-02-24T08:44:16;31.92;;;19.80;;
14994;SDS011;7593;49.006;8.372;2023-02-24T08:46:44;34.38;;;20.45;;
14994;SDS011;7593;49.006;8.372;2023-02-24T08:49:13;34.47;;;20.33;;
14994;SDS011;7593;49.006;8.372;2023-02-24T08:51:42;34.58;;;20.52;;
14994;SDS011;7593;49.006;8.372;2023-02-24T08:54:11;34.55;;;19.13;;
14994;SDS011;7593;49.006;8.372;2023-02-24T08:56:44;30.10;;;19.35;;
14994;SDS011;7593;49.006;8.372;2023-02-24T08:59:19;34.15;;;19.75;;
14994;SDS011;7593;49.006;8.372;2023-02-24T09:02:03;31.63;;;17.88;;
14994;SDS011;7593;49.006;8.372;2023-02-24T09:04:49;24.20;;;16.15;;
14994;SDS011;7593;49.006;8.372;2023-02-24T09:07:20;22.08;;;14.15;;
14994;SDS011;7593;49.006;8.372;2023-02-24T09:09:50;30.13;;;15.65;;
14994;SDS011;7593;49.006;8.372;2023-02-24T09:12:22;28.38;;;16.38;;
14994;SDS011;7593;49.006;8.372;2023-02-24T09:14:50;26.42;;;16.75;;
14994;SDS011;7593;49.006;8.372;2023-02-24T09:17:26;34.20;;;18.17;;
14994;SDS011;7593;49.006;8.372;2023-02-24T09:20:06;33.05;;;17.17;;
14994;SDS011;7593;49.006;8.372;2023-02-24T09:22:51;23.95;;;15.52;;
14994;SDS011;7593;49.006;8.372;2023-02-24T09:25:25;25.42;;;15.77;;
14994;SDS011;7593;49.006;8.372;2023-02-24T09:28:06;24.38;;;16.88;;
14994;SDS011;7593;49.006;8.372;2023-02-24T09:30:42;27.02;;;17.15;;
14994;SDS011;7593;49.006;8.372;2023-02-24T09:33:20;23.98;;;16.10;;
14994;SDS011;7593;49.006;8.372;2023-02-24T09:35:50;27.60;;;17.08;;
14994;SDS011;7593;49.006;8.372;2023-02-24T09:38:27;26.58;;;15.90;;
14994;SDS011;7593;49.006;8.372;2023-02-24T09:41:16;25.10;;;16.75;;
14994;SDS011;7593;49.006;8.372;2023-02-24T09:43:59;25.20;;;15.38;;
14994;SDS011;7593;49.006;8.372;2023-02-24T09:46:32;24.13;;;15.18;;
14994;SDS011;7593;49.006;8.372;2023-02-24T09:49:06;26.00;;;15.77;;
14994;SDS011;7593;49.006;8.372;2023-02-24T09:51:41;28.30;;;16.55;;
14994;SDS011;7593;49.006;8.372;2023-02-24T09:54:10;27.90;;;17.40;;
14994;SDS011;7593;49.006;8.372;2023-02-24T09:56:41;28.80;;;16.70;;
14994;SDS011;7593;49.006;8.372;2023-02-24T09:59:17;24.60;;;17.38;;
14994;SDS011;7593;49.006;8.372;2023-02-24T10:01:51;28.40;;;17.25;;
14994;SDS011;7593;49.006;8.372;2023-02-24T10:04:33;30.70;;;18.23;;
14994;SDS011;7593;49.006;8.372;2023-02-24T10:07:19;28.75;;;17.30;;
14994;SDS011;7593;49.006;8.372;2023-02-24T10:09:54;29.73;;;17.98;;
14994;SDS011;7593;49.006;8.372;2023-02-24T10:12:43;30.98;;;18.88;;
14994;SDS011;7593;49.006;8.372;2023-02-24T10:15:18;29.63;;;18.27;;
14994;SDS011;7593;49.006;8.372;2023-02-24T10:18:20;27.80;;;16.90;;
14994;SDS011;7593;49.006;8.372;2023-02-24T10:20:53;26.67;;;17.85;;
14994;SDS011;7593;49.006;8.372;2023-02-24T10:23:27;31.40;;;17.23;;
14994;SDS011;7593;49.006;8.372;2023-02-24T10:26:00;25.38;;;16.50;;
14994;SDS011;7593;49.006;8.372;2023-02-24T10:28:31;24.42;;;15.77;;
14994;SDS011;7593;49.006;8.372;2023-02-24T10:31:09;25.33;;;17.17;;
14994;SDS011;7593;49.006;8.372;2023-02-24T10:33:48;23.25;;;16.15;;
14994;SDS011;7593;49.006;8.372;2023-02-24T10:36:17;23.42;;;15.30;;
14994;SDS011;7593;49.006;8.372;2023-02-24T10:38:54;27.58;;;15.20;;
14994;SDS011;7593;49.006;8.372;2023-02-24T10:41:21;21.17;;;15.57;;
14994;SDS011;7593;49.006;8.372;2023-02-24T10:43:53;22.02;;;16.20;;
14994;SDS011;7593;49.006;8.372;2023-02-24T10:46:23;25.42;;;16.48;;
14994;SDS011;7593;49.006;8.372;2023-02-24T10:48:58;29.05;;;18.40;;
14994;SDS011;7593;49.006;8.372;2023-02-24T10:51:30;27.70;;;18.00;;
14994;SDS011;7593;49.006;8.372;2023-02-24T10:54:06;27.25;;;19.15;;
14994;SDS011;7593;49.006;8.372;2023-02-24T10:56:58;28.75;;;19.25;;
14994;SDS011;7593;49.006;8.372;2023-02-24T10:59:44;28.25;;;19.42;;
14994;SDS011;7593;49.006;8.372;2023-02-24T11:02:44;29.17;;;18.77;;
14994;SDS011;7593;49.006;8.372;2023-02-24T11:05:33;28.35;;;19.23;;
14994;SDS011;7593;49.006;8.372;2023-02-24T11:08:20;31.23;;;20.38;;
14994;SDS011;7593;49.006;8.372;2023-02-24T11:11:08;34.00;;;21.08;;
14994;SDS011;7593;49.006;8.372;2023-02-24T11:13:46;35.85;;;21.05;;
14994;SDS011;7593;49.006;8.372;2023-02-24T11:16:39;37.50;;;22.27;;
14994;SDS011;7593;49.006;8.372;2023-02-24T11:19:30;33.30;;;20.17;;
14994;SDS011;7593;49.006;8.372;2023-02-24T11:21:58;34.90;;;21.55;;
14994;SDS011;7593;49.006;8.372;2023-02-24T11:24:27;32.92;;;21.35;;
14994;SDS011;7593;49.006;8.372;2023-02-24T11:26:54;32.30;;;22.05;;
14994;SDS011;7593;49.006;8.372;2023-02-24T11:29:25;32.33;;;21.73;;
14994;SDS011;7593;49.006;8.372;2023-02-24T11:32:14;32.15;;;21.52;;
14994;SDS011;7593;49.006;8.372;2023-02-24T11:34:53;30.48;;;20.88;;
14994;SDS011;7593;49.006;8.372;2023-02-24T11:37:29;31.45;;;21.67;;
14994;SDS011;7593;49.006;8.372;2023-02-24T11:40:02;27.75;;;20.20;;
14994;SDS011;7593;49.006;8.372;2023-02-24T11:42:35;32.00;;;21.23;;
14994;SDS011;7593;49.006;8.372;2023-02-24T11:45:06;34.53;;;22.08;;
14994;SDS011;7593;49.006;8.372;2023-02-24T11:47:47;33.25;;;21.27;;
14994;SDS011;7593;49.006;8.372;2023-02-24T11:50:27;31.45;;;21.65;;
14994;SDS011;7593;49.006;8.372;2023-02-24T11:52:59;30.55;;;21.08;;
14994;SDS011;7593;49.006;8.372;2023-02-24T11:55:30;34.40;;;21.55;;
14994;SDS011;7593;49.006;8.372;2023-02-24T11:58:00;30.88;;;20.52;;
14994;SDS011;7593;49.006;8.372;2023-02-24T12:00:33;35.45;;;21.67;;
14994;SDS011;7593;49.006;8.372;2023-02-24T12:03:05;32.55;;;21.10;;
14994;SDS011;7593;49.006;8.372;2023-02-24T12:05:40;31.70;;;20.13;;
14994;SDS011;7593;49.006;8.372;2023-02-24T12:08:14;32.58;;;20.92;;
14994;SDS011;7593;49.006;8.372;2023-02-24T12:10:49;30.67;;;20.48;;
14994;SDS011;7593;49.006;8.372;2023-02-24T12:13:20;31.85;;;21.63;;
14994;SDS011;7593;49.006;8.372;2023-02-24T12:15:55;33.78;;;21.33;;
14994;SDS011;7593;49.006;8.372;2023-02-24T12:18:29;28.88;;;19.88;;
14994;SDS011;7593;49.006;8.372;2023-02-24T12:21:02;29.33;;;20.88;;
14994;SDS011;7593;49.006;8.372;2023-02-24T12:23:32;30.02;;;20.10;;
14994;SDS011;7593;49.006;8.372;2023-02-24T12:26:05;26.85;;;18.80;;
14994;SDS011;7593;49.006;8.372;2023-02-24T12:28:44;29.77;;;20.02;;
14994;SDS011;7593;49.006;8.372;2023-02-24T12:31:35;30.25;;;20.60;;
14994;SDS011;7593;49.006;8.372;2023-02-24T12:34:08;32.05;;;20.35;;
14994;SDS011;7593;49.006;8.372;2023-02-24T12:36:47;29.90;;;19.60;;
14994;SDS011;7593;49.006;8.372;2023-02-24T12:39:32;29.98;;;20.85;;
14994;SDS011;7593;49.006;8.372;2023-02-24T12:42:09;31.65;;;20.73;;
14994;SDS011;7593;49.006;8.372;2023-02-24T12:44:46;36.03;;;21.35;;
14994;SDS011;7593;49.006;8.372;2023-02-24T12:47:19;32.42;;;20.67;;
14994;SDS011;7593;49.006;8.372;2023-02-24T12:50:03;33.80;;;21.38;;
14994;SDS011;7593;49.006;8.372;2023-02-24T12:52:41;36.90;;;22.38;;
14994;SDS011;7593;49.006;8.372;2023-02-24T12:55:17;33.03;;;20.85;;
14994;SDS011;7593;49.006;8.372;2023-02-24T12:57:50;37.13;;;21.98;;
14994;SDS011;7593;49.006;8.372;2023-02-24T13:00:27;32.83;;;20.45;;
14994;SDS011;7593;49.006;8.372;2023-02-24T13:03:03;33.42;;;21.15;;
14994;SDS011;7593;49.006;8.372;2023-02-24T13:05:41;32.58;;;20.77;;
14994;SDS011;7593;49.006;8.372;2023-02-24T13:08:20;31.02;;;20.95;;
14994;SDS011;7593;49.006;8.372;2023-02-24T13:10:58;31.92;;;20.92;;
14994;SDS011;7593;49.006;8.372;2023-02-24T13:13:36;33.58;;;20.10;;
14994;SDS011;7593;49.006;8.372;2023-02-24T13:16:13;34.20;;;21.90;;
14994;SDS011;7593;49.006;8.372;2023-02-24T13:18:40;32.70;;;20.13;;
14994;SDS011;7593;49.006;8.372;2023-02-24T13:21:08;32.10;;;21.17;;
14994;SDS011;7593;49.006;8.372;2023-02-24T13:23:52;30.45;;;21.35;;
14994;SDS011;7593;49.006;8.372;2023-02-24T13:26:21;31.73;;;21.63;;
14994;SDS011;7593;49.006;8.372;2023-02-24T13:28:55;30.42;;;20.75;;
14994;SDS011;7593;49.006;8.372;2023-02-24T13:31:25;30.27;;;20.00;;
14994;SDS011;7593;49.006;8.372;2023-02-24T13:33:52;29.75;;;18.90;;
14994;SDS011;7593;49.006;8.372;2023-02-24T13:36:19;29.17;;;19.98;;
14994;SDS011;7593;49.006;8.372;2023-02-24T13:38:49;31.27;;;19.52;;
14994;SDS011;7593;49.006;8.372;2023-02-24T13:41:31;30.27;;;19.48;;
14994;SDS011;7593;49.006;8.372;2023-02-24T13:44:02;33.20;;;19.52;;
14994;SDS011;7593;49.006;8.372;2023-02-24T13:46:47;34.72;;;21.83;;
14994;SDS011;7593;49.006;8.372;2023-02-24T13:49:29;33.70;;;21.95;;
14994;SDS011;7593;49.006;8.372;2023-02-24T13:52:01;32.60;;;20.65;;
14994;SDS011;7593;49.006;8.372;2023-02-24T13:54:41;35.17;;;23.02;;
14994;SDS011;7593;49.006;8.372;2023-02-24T13:57:38;32.55;;;21.63;;
14994;SDS011;7593;49.006;8.372;2023-02-24T14:00:14;31.45;;;21.60;;
14994;SDS011;7593;49.006;8.372;2023-02-24T14:02:50;31.98;;;20.70;;
14994;SDS011;7593;49.006;8.372;2023-02-24T14:05:19;31.45;;;20.45;;
14994;SDS011;7593;49.006;8.372;2023-02-24T14:07:50;36.63;;;21.17;;
14994;SDS011;7593;49.006;8.372;2023-02-24T14:10:19;33.92;;;20.20;;
14994;SDS011;7593;49.006;8.372;2023-02-24T14:12:54;29.98;;;19.55;;
14994;SDS011;7593;49.006;8.372;2023-02-24T14:15:29;30.20;;;19.65;;
14994;SDS011;7593;49.006;8.372;2023-02-24T14:17:57;27.33;;;18.67;;
14994;SDS011;7593;49.006;8.372;2023-02-24T14:20:26;29.50;;;18.85;;
14994;SDS011;7593;49.006;8.372;2023-02-24T14:22:54;29.25;;;18.67;;
14994;SDS011;7593;49.006;8.372;2023-02-24T14:25:23;29.55;;;18.75;;
14994;SDS011;7593;49.006;8.372;2023-02-24T14:27:54;29.88;;;19.17;;
14994;SDS011;7593;49.006;8.372;2023-02-24T14:30:23;27.85;;;18.33;;
14994;SDS011;7593;49.006;8.372;2023-02-24T14:32:52;27.02;;;18.13;;
14994;SDS011;7593;49.006;8.372;2023-02-24T14:35:22;27.27;;;17.83;;
14994;SDS011;7593;49.006;8.372;2023-02-24T14:37:56;23.65;;;16.77;;
14994;SDS011;7593;49.006;8.372;2023-02-24T14:40:25;27.23;;;16.73;;
14994;SDS011;7593;49.006;8.372;2023-02-24T14:42:54;21.73;;;16.50;;
14994;SDS011;7593;49.006;8.372;2023-02-24T14:45:22;21.17;;;15.43;;
14994;SDS011;7593;49.006;8.372;2023-02-24T14:47:50;22.98;;;15.88;;
14994;SDS011;7593;49.006;8.372;2023-02-24T14:50:18;22.23;;;15.18;;
14994;SDS011;7593;49.006;8.372;2023-02-24T14:52:49;23.88;;;16.00;;
14994;SDS011;7593;49.006;8.372;2023-02-24T14:55:18;23.27;;;14.82;;
14994;SDS011;7593;49.006;8.372;2023-02-24T14:57:48;19.17;;;14.85;;
14994;SDS011;7593;49.006;8.372;2023-02-24T15:00:24;22.92;;;14.55;;
14994;SDS011;7593;49.006;8.372;2023-02-24T15:02:55;23.05;;;15.27;;
14994;SDS011;7593;49.006;8.372;2023-02-24T15:05:29;20.10;;;13.68;;
14994;SDS011;7593;49.006;8.372;2023-02-24T15:07:56;21.83;;;13.73;;
14994;SDS011;7593;49.006;8.372;2023-02-24T15:10:26;23.55;;;13.75;;